createdAt,value
2022-12-03T00:00:17.010Z,20.42
2022-12-03T00:01:17.041Z,20.40
2022-12-03T00:02:17.240Z,20.42
2022-12-03T00:03:17.329Z,20.37
2022-12-03T00:04:17.095Z,20.41
2022-12-03T00:05:17.105Z,20.47
2022-12-03T00:06:17.161Z,20.47
2022-12-03T00:07:17.149Z,20.49
2022-12-03T00:08:17.222Z,20.52
2022-12-03T00:09:17.181Z,20.52
2022-12-03T00:10:17.394Z,20.51
2022-12-03T00:11:17.250Z,20.48
2022-12-03T00:12:17.333Z,20.55
2022-12-03T00:13:17.271Z,20.54
2022-12-03T00:14:17.319Z,20.57
2022-12-03T00:15:17.337Z,20.51
2022-12-03T00:16:17.479Z,20.45
2022-12-03T00:17:17.417Z,20.49
2022-12-03T00:18:17.419Z,20.47
2022-12-03T00:19:17.568Z,20.48
2022-12-03T00:20:17.510Z,20.51
2022-12-03T00:21:17.526Z,20.57
2022-12-03T00:22:17.529Z,20.52
2022-12-03T00:23:17.561Z,20.47
2022-12-03T00:24:17.601Z,20.49
2022-12-03T00:25:17.620Z,20.48
2022-12-03T00:26:17.754Z,20.52
2022-12-03T00:27:17.685Z,20.48
2022-12-03T00:28:17.704Z,20.45
2022-12-03T00:29:17.689Z,20.45
2022-12-03T00:30:17.703Z,20.49
2022-12-03T00:31:17.791Z,20.47
2022-12-03T00:32:17.712Z,20.47
2022-12-03T00:33:17.731Z,20.48
2022-12-03T00:34:17.762Z,20.49
2022-12-03T00:35:17.791Z,20.47
2022-12-03T00:36:17.817Z,20.54
2022-12-03T00:37:17.857Z,20.52
2022-12-03T00:38:17.857Z,20.42
2022-12-03T00:39:17.865Z,20.41
2022-12-03T00:40:17.899Z,20.38
2022-12-03T00:41:17.952Z,20.44
2022-12-03T00:42:17.934Z,20.40
2022-12-03T00:43:17.965Z,20.44
2022-12-03T00:44:17.974Z,20.42
2022-12-03T00:45:18.009Z,20.42
2022-12-03T00:46:21.352Z,20.47
2022-12-03T00:47:18.057Z,20.45
2022-12-03T00:48:18.071Z,20.41
2022-12-03T00:49:18.106Z,20.41
2022-12-03T00:50:18.134Z,20.44
2022-12-03T00:51:18.187Z,20.38
2022-12-03T00:52:18.170Z,20.38
2022-12-03T00:53:18.201Z,20.40
2022-12-03T00:54:18.232Z,20.41
2022-12-03T00:55:18.268Z,20.41
2022-12-03T00:56:18.317Z,20.42
2022-12-03T00:57:18.313Z,20.45
2022-12-03T00:58:18.319Z,20.52
2022-12-03T00:59:18.354Z,20.42
2022-12-03T01:00:18.389Z,20.40
2022-12-03T01:01:18.516Z,20.42
2022-12-03T01:02:18.543Z,20.37
2022-12-03T01:03:18.470Z,20.47
2022-12-03T01:04:18.570Z,20.48
2022-12-03T01:05:18.572Z,20.47
2022-12-03T01:06:18.525Z,20.41
2022-12-03T01:07:18.554Z,20.42
2022-12-03T01:08:18.585Z,20.38
2022-12-03T01:09:18.609Z,20.40
2022-12-03T01:10:18.645Z,20.44
2022-12-03T01:11:18.705Z,20.41
2022-12-03T01:12:18.679Z,20.40
2022-12-03T01:13:18.706Z,20.47
2022-12-03T01:14:18.743Z,20.42
2022-12-03T01:15:18.773Z,20.40
2022-12-03T01:16:18.877Z,20.34
2022-12-03T01:17:18.822Z,20.32
2022-12-03T01:18:18.838Z,20.38
2022-12-03T01:19:18.885Z,20.38
2022-12-03T01:20:18.893Z,20.30
2022-12-03T01:21:18.952Z,20.30
2022-12-03T01:22:18.943Z,20.35
2022-12-03T01:23:18.971Z,20.37
2022-12-03T01:24:18.994Z,20.30
2022-12-03T01:25:19.028Z,20.31
2022-12-03T01:26:19.071Z,20.35
2022-12-03T01:27:19.067Z,20.37
2022-12-03T01:28:19.115Z,20.32
2022-12-03T01:29:19.086Z,20.31
2022-12-03T01:30:19.124Z,20.35
2022-12-03T01:31:19.263Z,20.40
2022-12-03T01:32:19.197Z,20.40
2022-12-03T01:33:19.219Z,20.42
2022-12-03T01:34:19.228Z,20.35
2022-12-03T01:35:19.265Z,20.38
2022-12-03T01:36:19.304Z,20.37
2022-12-03T01:37:19.292Z,20.37
2022-12-03T01:38:19.331Z,20.40
2022-12-03T01:39:19.355Z,20.41
2022-12-03T01:40:19.377Z,20.47
2022-12-03T01:41:19.432Z,20.42
2022-12-03T01:42:19.464Z,20.41
2022-12-03T01:43:19.483Z,20.35
2022-12-03T01:44:19.525Z,20.40
2022-12-03T01:45:19.559Z,20.38
2022-12-03T01:46:19.669Z,20.37
2022-12-03T01:47:19.606Z,20.34
2022-12-03T01:48:19.637Z,20.28
2022-12-03T01:49:19.672Z,20.30
2022-12-03T01:50:19.702Z,20.31
2022-12-03T01:51:19.748Z,20.35
2022-12-03T01:52:19.734Z,20.30
2022-12-03T01:53:19.773Z,20.31
2022-12-03T01:54:19.810Z,20.34
2022-12-03T01:55:19.829Z,20.40
2022-12-03T01:56:19.893Z,20.34
2022-12-03T01:57:19.875Z,20.34
2022-12-03T01:58:19.914Z,20.37
2022-12-03T01:59:19.957Z,20.34
2022-12-03T02:00:19.950Z,20.27
2022-12-03T02:01:20.106Z,20.31
2022-12-03T02:02:19.984Z,20.32
2022-12-03T02:03:20.015Z,20.34
2022-12-03T02:04:20.113Z,20.35
2022-12-03T02:05:20.077Z,20.32
2022-12-03T02:06:20.118Z,20.32
2022-12-03T02:07:20.107Z,20.27
2022-12-03T02:08:20.158Z,20.24
2022-12-03T02:09:20.184Z,20.28
2022-12-03T02:10:20.215Z,20.35
2022-12-03T02:11:20.265Z,20.34
2022-12-03T02:12:20.296Z,20.35
2022-12-03T02:13:20.331Z,20.37
2022-12-03T02:14:20.360Z,20.38
2022-12-03T02:15:20.397Z,20.41
2022-12-03T02:16:20.527Z,20.45
2022-12-03T02:17:20.441Z,20.48
2022-12-03T02:18:20.490Z,20.47
2022-12-03T02:19:20.515Z,20.45
2022-12-03T02:20:20.543Z,20.41
2022-12-03T02:21:20.600Z,20.38
2022-12-03T02:22:20.658Z,20.27
2022-12-03T02:23:20.652Z,20.37
2022-12-03T02:24:20.677Z,20.34
2022-12-03T02:25:20.701Z,20.37
2022-12-03T02:26:20.764Z,20.32
2022-12-03T02:27:20.880Z,20.28
2022-12-03T02:28:20.799Z,20.30
2022-12-03T02:29:20.830Z,20.38
2022-12-03T02:30:20.840Z,20.42
2022-12-03T02:31:20.916Z,20.41
2022-12-03T02:32:20.899Z,20.37
2022-12-03T02:33:20.924Z,20.45
2022-12-03T02:34:20.950Z,20.38
2022-12-03T02:35:21.000Z,20.31
2022-12-03T02:36:21.049Z,20.25
2022-12-03T02:37:21.030Z,20.28
2022-12-03T02:38:21.053Z,20.23
2022-12-03T02:39:21.071Z,20.31
2022-12-03T02:40:21.076Z,20.34
2022-12-03T02:41:21.118Z,20.31
2022-12-03T02:42:21.112Z,20.30
2022-12-03T02:43:21.129Z,20.34
2022-12-03T02:44:21.147Z,20.25
2022-12-03T02:45:21.163Z,20.32
2022-12-03T02:46:21.243Z,20.28
2022-12-03T02:47:21.179Z,20.28
2022-12-03T02:48:21.206Z,20.34
2022-12-03T02:49:21.241Z,20.31
2022-12-03T02:50:21.272Z,20.25
2022-12-03T02:51:21.328Z,20.25
2022-12-03T02:52:21.309Z,20.30
2022-12-03T02:53:21.336Z,20.24
2022-12-03T02:54:21.370Z,20.20
2022-12-03T02:55:21.391Z,20.16
2022-12-03T02:56:21.439Z,20.18
2022-12-03T02:57:21.455Z,20.21
2022-12-03T02:58:21.469Z,20.25
2022-12-03T02:59:21.515Z,20.31
2022-12-03T03:00:21.545Z,20.34
2022-12-03T03:01:21.608Z,20.28
2022-12-03T03:02:21.784Z,20.31
2022-12-03T03:03:21.616Z,20.24
2022-12-03T03:04:21.662Z,20.23
2022-12-03T03:05:21.659Z,20.25
2022-12-03T03:06:21.698Z,20.20
2022-12-03T03:07:21.685Z,20.20
2022-12-03T03:08:21.707Z,20.28
2022-12-03T03:09:21.749Z,20.35
2022-12-03T03:10:21.804Z,20.31
2022-12-03T03:11:21.856Z,20.35
2022-12-03T03:12:21.856Z,20.35
2022-12-03T03:13:21.875Z,20.38
2022-12-03T03:14:21.899Z,20.34
2022-12-03T03:15:21.923Z,20.30
2022-12-03T03:16:22.021Z,20.30
2022-12-03T03:17:21.963Z,20.27
2022-12-03T03:18:21.990Z,20.25
2022-12-03T03:19:22.009Z,20.24
2022-12-03T03:20:22.031Z,20.28
2022-12-03T03:21:22.265Z,20.23
2022-12-03T03:22:22.120Z,20.23
2022-12-03T03:23:22.122Z,20.18
2022-12-03T03:24:22.150Z,20.18
2022-12-03T03:25:22.192Z,20.23
2022-12-03T03:26:22.231Z,20.24
2022-12-03T03:27:22.237Z,20.23
2022-12-03T03:28:22.248Z,20.24
2022-12-03T03:29:22.283Z,20.21
2022-12-03T03:30:22.319Z,20.18
2022-12-03T03:31:22.410Z,20.23
2022-12-03T03:32:22.381Z,20.28
2022-12-03T03:33:22.427Z,20.28
2022-12-03T03:34:22.449Z,20.25
2022-12-03T03:35:22.467Z,20.25
2022-12-03T03:36:22.506Z,20.27
2022-12-03T03:37:22.521Z,20.25
2022-12-03T03:38:22.546Z,20.27
2022-12-03T03:39:22.598Z,20.30
2022-12-03T03:40:22.605Z,20.20
2022-12-03T03:41:22.629Z,20.21
2022-12-03T03:42:22.649Z,20.30
2022-12-03T03:43:22.688Z,20.28
2022-12-03T03:44:22.724Z,20.25
2022-12-03T03:45:28.781Z,20.24
2022-12-03T03:46:22.828Z,20.17
2022-12-03T03:47:22.766Z,20.21
2022-12-03T03:48:22.786Z,20.24
2022-12-03T03:49:22.905Z,20.24
2022-12-03T03:50:22.819Z,20.25
2022-12-03T03:51:22.867Z,20.25
2022-12-03T03:52:22.866Z,20.23
2022-12-03T03:53:22.902Z,20.24
2022-12-03T03:54:22.947Z,20.21
2022-12-03T03:55:22.978Z,20.24
2022-12-03T03:56:23.030Z,20.27
2022-12-03T03:57:23.044Z,20.23
2022-12-03T03:58:23.080Z,20.24
2022-12-03T03:59:23.106Z,20.20
2022-12-03T04:00:23.133Z,20.20
2022-12-03T04:01:23.189Z,20.24
2022-12-03T04:02:23.161Z,20.23
2022-12-03T04:03:23.178Z,20.27
2022-12-03T04:04:23.348Z,20.21
2022-12-03T04:05:23.227Z,20.18
2022-12-03T04:06:23.263Z,20.16
2022-12-03T04:07:23.293Z,20.17
2022-12-03T04:08:23.291Z,20.23
2022-12-03T04:09:23.325Z,20.24
2022-12-03T04:10:23.340Z,20.17
2022-12-03T04:11:23.390Z,20.17
2022-12-03T04:12:23.425Z,20.14
2022-12-03T04:13:23.454Z,20.17
2022-12-03T04:14:23.495Z,20.21
2022-12-03T04:15:23.521Z,20.17
2022-12-03T04:16:23.626Z,20.21
2022-12-03T04:17:23.586Z,20.20
2022-12-03T04:18:23.612Z,20.17
2022-12-03T04:19:23.637Z,20.14
2022-12-03T04:20:23.693Z,20.14
2022-12-03T04:21:23.678Z,20.16
2022-12-03T04:22:23.655Z,20.16
2022-12-03T04:23:29.272Z,20.09
2022-12-03T04:24:23.684Z,20.13
2022-12-03T04:25:23.714Z,20.17
2022-12-03T04:26:23.758Z,20.10
2022-12-03T04:27:23.772Z,20.16
2022-12-03T04:28:23.815Z,20.13
2022-12-03T04:29:23.847Z,20.12
2022-12-03T04:30:23.948Z,20.16
2022-12-03T04:31:23.968Z,20.18
2022-12-03T04:32:23.915Z,20.16
2022-12-03T04:33:23.968Z,20.16
2022-12-03T04:34:23.980Z,20.14
2022-12-03T04:35:24.054Z,20.13
2022-12-03T04:36:24.075Z,20.17
2022-12-03T04:37:24.057Z,20.12
2022-12-03T04:38:24.076Z,20.10
2022-12-03T04:39:24.145Z,20.14
2022-12-03T04:40:24.084Z,20.13
2022-12-03T04:41:24.126Z,20.13
2022-12-03T04:42:24.111Z,20.06
2022-12-03T04:43:24.171Z,20.13
2022-12-03T04:44:24.271Z,20.09
2022-12-03T04:45:24.228Z,20.14
2022-12-03T04:46:24.303Z,20.12
2022-12-03T04:47:24.242Z,20.12
2022-12-03T04:48:24.279Z,20.07
2022-12-03T04:49:24.314Z,20.06
2022-12-03T04:50:24.352Z,20.06
2022-12-03T04:51:24.409Z,20.09
2022-12-03T04:52:24.398Z,20.14
2022-12-03T04:53:24.425Z,20.14
2022-12-03T04:54:24.453Z,19.99
2022-12-03T04:55:24.489Z,19.96
2022-12-03T04:56:24.578Z,19.90
2022-12-03T04:57:24.524Z,19.89
2022-12-03T04:58:24.530Z,19.99
2022-12-03T04:59:24.577Z,20.03
2022-12-03T05:00:24.591Z,20.07
2022-12-03T05:01:24.840Z,20.09
2022-12-03T05:02:24.612Z,20.13
2022-12-03T05:03:24.617Z,20.10
2022-12-03T05:04:24.651Z,20.13
2022-12-03T05:05:24.678Z,20.14
2022-12-03T05:06:24.716Z,20.14
2022-12-03T05:07:24.849Z,20.07
2022-12-03T05:08:24.762Z,20.03
2022-12-03T05:09:24.792Z,20.04
2022-12-03T05:10:24.813Z,20.00
2022-12-03T05:11:24.836Z,20.04
2022-12-03T05:12:24.826Z,20.12
2022-12-03T05:13:24.851Z,20.03
2022-12-03T05:14:24.863Z,20.09
2022-12-03T05:15:24.884Z,20.10
2022-12-03T05:16:24.961Z,20.12
2022-12-03T05:17:24.947Z,20.12
2022-12-03T05:18:24.953Z,20.10
2022-12-03T05:19:24.980Z,20.14
2022-12-03T05:20:25.006Z,20.06
2022-12-03T05:21:25.214Z,20.04
2022-12-03T05:22:25.068Z,20.04
2022-12-03T05:23:25.101Z,20.02
2022-12-03T05:24:25.131Z,19.99
2022-12-03T05:25:25.163Z,20.07
2022-12-03T05:26:25.197Z,20.09
2022-12-03T05:27:25.211Z,20.09
2022-12-03T05:28:25.242Z,20.10
2022-12-03T05:29:25.284Z,20.12
2022-12-03T05:30:25.371Z,20.04
2022-12-03T05:31:25.372Z,20.04
2022-12-03T05:32:25.361Z,20.02
2022-12-03T05:33:25.371Z,20.06
2022-12-03T05:34:25.395Z,20.07
2022-12-03T05:35:25.421Z,20.14
2022-12-03T05:36:25.608Z,20.07
2022-12-03T05:37:25.458Z,20.10
2022-12-03T05:38:25.516Z,20.13
2022-12-03T05:39:25.506Z,20.16
2022-12-03T05:40:25.552Z,20.17
2022-12-03T05:41:25.590Z,20.20
2022-12-03T05:42:25.597Z,20.17
2022-12-03T05:43:25.626Z,20.18
2022-12-03T05:44:25.652Z,20.21
2022-12-03T05:45:25.684Z,20.17
2022-12-03T05:46:25.777Z,20.21
2022-12-03T05:47:25.733Z,20.16
2022-12-03T05:48:25.756Z,20.16
2022-12-03T05:49:25.791Z,20.16
2022-12-03T05:50:25.818Z,20.06
2022-12-03T05:51:25.862Z,20.03
2022-12-03T05:52:25.867Z,19.99
2022-12-03T05:53:25.886Z,20.02
2022-12-03T05:54:25.903Z,20.04
2022-12-03T05:55:25.956Z,20.13
2022-12-03T05:56:25.990Z,20.09
2022-12-03T05:57:26.013Z,20.03
2022-12-03T05:58:26.012Z,19.97
2022-12-03T05:59:26.042Z,19.97
2022-12-03T06:00:26.067Z,20.00
2022-12-03T06:01:26.115Z,19.99
2022-12-03T06:02:26.215Z,20.03
2022-12-03T06:03:26.256Z,20.00
2022-12-03T06:04:26.174Z,19.99
2022-12-03T06:05:26.181Z,20.07
2022-12-03T06:06:26.206Z,20.03
2022-12-03T06:07:26.189Z,20.02
2022-12-03T06:08:26.203Z,20.00
2022-12-03T06:09:26.219Z,19.96
2022-12-03T06:10:26.225Z,19.99
2022-12-03T06:11:26.302Z,19.97
2022-12-03T06:12:26.329Z,19.97
2022-12-03T06:13:26.359Z,20.03
2022-12-03T06:14:26.364Z,19.95
2022-12-03T06:15:26.394Z,19.99
2022-12-03T06:16:26.447Z,20.03
2022-12-03T06:17:26.448Z,20.04
2022-12-03T06:18:26.477Z,20.02
2022-12-03T06:19:26.516Z,20.02
2022-12-03T06:20:26.540Z,20.00
2022-12-03T06:21:26.589Z,20.00
2022-12-03T06:22:26.612Z,20.03
2022-12-03T06:23:26.630Z,20.04
2022-12-03T06:24:26.628Z,20.07
2022-12-03T06:25:26.627Z,20.06
2022-12-03T06:26:26.674Z,19.95
2022-12-03T06:27:26.697Z,19.96
2022-12-03T06:28:26.706Z,20.00
2022-12-03T06:29:26.734Z,20.02
2022-12-03T06:30:26.735Z,20.02
2022-12-03T06:31:26.861Z,19.97
2022-12-03T06:32:26.783Z,19.95
2022-12-03T06:33:26.811Z,19.97
2022-12-03T06:34:26.836Z,19.99
2022-12-03T06:35:26.866Z,19.95
2022-12-03T06:36:26.894Z,19.96
2022-12-03T06:37:26.921Z,20.02
2022-12-03T06:38:26.955Z,19.97
2022-12-03T06:39:26.991Z,19.90
2022-12-03T06:40:27.014Z,19.90
2022-12-03T06:41:27.029Z,19.95
2022-12-03T06:42:27.022Z,20.00
2022-12-03T06:43:27.068Z,19.88
2022-12-03T06:44:27.079Z,19.95
2022-12-03T06:45:27.101Z,19.93
2022-12-03T06:46:27.219Z,19.92
2022-12-03T06:47:27.163Z,19.90
2022-12-03T06:48:27.171Z,19.88
2022-12-03T06:49:27.189Z,19.89
2022-12-03T06:50:27.216Z,19.92
2022-12-03T06:51:27.259Z,19.93
2022-12-03T06:52:27.201Z,19.93
2022-12-03T06:53:27.267Z,19.99
2022-12-03T06:54:27.296Z,19.99
2022-12-03T06:55:27.344Z,19.95
2022-12-03T06:56:32.829Z,19.93
2022-12-03T06:57:27.377Z,19.90
2022-12-03T06:58:27.407Z,19.93
2022-12-03T06:59:27.455Z,19.96
2022-12-03T07:00:27.475Z,19.92
2022-12-03T07:01:27.537Z,19.95
2022-12-03T07:02:27.556Z,19.97
2022-12-03T07:03:27.624Z,19.89
2022-12-03T07:04:27.614Z,19.89
2022-12-03T07:05:27.708Z,19.92
2022-12-03T07:06:27.655Z,19.92
2022-12-03T07:07:27.692Z,19.85
2022-12-03T07:08:27.704Z,19.85
2022-12-03T07:09:27.736Z,19.90
2022-12-03T07:10:27.740Z,19.93
2022-12-03T07:11:27.786Z,19.93
2022-12-03T07:12:27.793Z,19.89
2022-12-03T07:13:27.803Z,19.85
2022-12-03T07:14:27.830Z,19.90
2022-12-03T07:15:27.850Z,19.90
2022-12-03T07:16:27.958Z,19.93
2022-12-03T07:17:27.874Z,19.88
2022-12-03T07:18:27.918Z,19.86
2022-12-03T07:19:32.588Z,19.88
2022-12-03T07:20:27.965Z,19.89
2022-12-03T07:21:28.032Z,19.90
2022-12-03T07:22:28.028Z,19.93
2022-12-03T07:23:28.067Z,19.92
2022-12-03T07:24:28.108Z,19.96
2022-12-03T07:25:28.138Z,20.00
2022-12-03T07:26:28.184Z,20.03
2022-12-03T07:27:28.203Z,20.02
2022-12-03T07:28:28.232Z,19.90
2022-12-03T07:29:28.262Z,19.92
2022-12-03T07:30:28.316Z,19.90
2022-12-03T07:31:28.379Z,19.89
2022-12-03T07:32:28.302Z,19.93
2022-12-03T07:33:28.328Z,19.93
2022-12-03T07:34:28.374Z,19.92
2022-12-03T07:35:28.417Z,19.92
2022-12-03T07:36:28.450Z,19.93
2022-12-03T07:37:28.472Z,19.92
2022-12-03T07:38:28.502Z,19.90
2022-12-03T07:39:28.529Z,19.82
2022-12-03T07:40:28.642Z,19.89
2022-12-03T07:41:28.602Z,19.90
2022-12-03T07:42:28.593Z,19.92
2022-12-03T07:43:28.621Z,19.99
2022-12-03T07:44:28.636Z,20.00
2022-12-03T07:45:28.673Z,20.00
2022-12-03T07:46:28.736Z,20.00
2022-12-03T07:47:28.746Z,20.00
2022-12-03T07:48:28.765Z,20.00
2022-12-03T07:49:28.799Z,20.00
2022-12-03T07:50:28.795Z,19.97
2022-12-03T07:51:32.187Z,19.96
2022-12-03T07:52:28.833Z,19.96
2022-12-03T07:53:28.829Z,19.89
2022-12-03T07:54:28.839Z,19.96
2022-12-03T07:55:28.867Z,19.90
2022-12-03T07:56:28.902Z,19.96
2022-12-03T07:57:28.891Z,19.95
2022-12-03T07:58:28.902Z,19.95
2022-12-03T07:59:28.896Z,19.96
2022-12-03T08:00:28.950Z,19.95
2022-12-03T08:01:29.019Z,19.99
2022-12-03T08:02:29.136Z,20.02
2022-12-03T08:03:28.980Z,19.95
2022-12-03T08:04:29.012Z,19.90
2022-12-03T08:05:29.016Z,19.85
2022-12-03T08:06:29.058Z,19.86
2022-12-03T08:07:29.094Z,19.86
2022-12-03T08:08:29.095Z,19.89
2022-12-03T08:09:29.137Z,19.89
2022-12-03T08:10:29.152Z,19.96
2022-12-03T08:11:29.204Z,19.93
2022-12-03T08:12:29.203Z,19.95
2022-12-03T08:13:29.242Z,19.95
2022-12-03T08:14:29.260Z,19.88
2022-12-03T08:15:33.681Z,19.97
2022-12-03T08:16:29.406Z,20.02
2022-12-03T08:17:29.314Z,20.00
2022-12-03T08:18:29.349Z,20.04
2022-12-03T08:19:29.348Z,20.03
2022-12-03T08:20:29.377Z,20.07
2022-12-03T08:21:29.422Z,20.09
2022-12-03T08:22:29.396Z,20.12
2022-12-03T08:23:29.404Z,20.14
2022-12-03T08:24:29.420Z,20.17
2022-12-03T08:25:29.438Z,20.17
2022-12-03T08:26:29.476Z,20.12
2022-12-03T08:27:29.486Z,20.10
2022-12-03T08:28:29.511Z,20.09
2022-12-03T08:29:29.550Z,20.04
2022-12-03T08:30:29.704Z,20.07
2022-12-03T08:31:33.489Z,20.03
2022-12-03T08:32:29.627Z,20.09
2022-12-03T08:33:29.670Z,20.07
2022-12-03T08:34:29.691Z,20.09
2022-12-03T08:35:29.698Z,20.07
2022-12-03T08:36:29.718Z,20.00
2022-12-03T08:37:29.717Z,19.97
2022-12-03T08:38:29.756Z,19.96
2022-12-03T08:39:29.773Z,19.95
2022-12-03T08:40:29.859Z,19.92
2022-12-03T08:41:29.840Z,19.86
2022-12-03T08:42:29.871Z,19.86
2022-12-03T08:43:29.913Z,19.83
2022-12-03T08:44:29.944Z,19.80
2022-12-03T08:45:29.993Z,19.82
2022-12-03T08:46:30.037Z,19.79
2022-12-03T08:47:30.021Z,19.80
2022-12-03T08:48:30.030Z,19.85
2022-12-03T08:49:30.037Z,19.83
2022-12-03T08:50:30.059Z,19.86
2022-12-03T08:51:30.106Z,19.86
2022-12-03T08:52:30.106Z,19.90
2022-12-03T08:53:30.112Z,19.90
2022-12-03T08:54:30.119Z,19.89
2022-12-03T08:55:30.159Z,19.89
2022-12-03T08:56:30.192Z,19.88
2022-12-03T08:57:30.182Z,19.86
2022-12-03T08:58:30.239Z,19.86
2022-12-03T08:59:30.254Z,19.85
2022-12-03T09:00:30.295Z,19.79
2022-12-03T09:01:30.428Z,19.86
2022-12-03T09:02:30.346Z,19.75
2022-12-03T09:03:30.360Z,19.69
2022-12-03T09:04:30.534Z,19.70
2022-12-03T09:05:30.380Z,19.69
2022-12-03T09:06:30.436Z,19.68
2022-12-03T09:07:30.485Z,19.59
2022-12-03T09:08:30.430Z,19.57
2022-12-03T09:09:30.468Z,19.51
2022-12-03T09:10:30.475Z,19.47
2022-12-03T09:11:30.524Z,19.45
2022-12-03T09:12:30.544Z,19.48
2022-12-03T09:13:30.545Z,19.45
2022-12-03T09:14:30.592Z,19.31
2022-12-03T09:15:30.603Z,19.21
2022-12-03T09:16:30.674Z,19.20
2022-12-03T09:17:30.608Z,19.23
2022-12-03T09:18:30.604Z,19.27
2022-12-03T09:19:30.632Z,19.40
2022-12-03T09:20:30.643Z,19.51
2022-12-03T09:21:30.690Z,19.51
2022-12-03T09:22:30.694Z,19.61
2022-12-03T09:23:30.733Z,19.65
2022-12-03T09:24:30.766Z,19.70
2022-12-03T09:25:30.786Z,19.75
2022-12-03T09:26:30.829Z,19.76
2022-12-03T09:27:30.832Z,19.76
2022-12-03T09:28:30.900Z,19.78
2022-12-03T09:29:30.881Z,19.82
2022-12-03T09:30:30.913Z,19.80
2022-12-03T09:31:30.994Z,19.80
2022-12-03T09:32:31.021Z,19.83
2022-12-03T09:33:31.016Z,19.85
2022-12-03T09:34:31.053Z,19.86
2022-12-03T09:35:31.082Z,19.86
2022-12-03T09:36:31.123Z,19.88
2022-12-03T09:37:31.130Z,19.89
2022-12-03T09:38:31.137Z,19.92
2022-12-03T09:39:31.166Z,19.89
2022-12-03T09:40:31.187Z,19.89
2022-12-03T09:41:31.254Z,19.90
2022-12-03T09:42:31.239Z,19.89
2022-12-03T09:43:49.418Z,19.90
2022-12-03T09:44:31.292Z,19.88
2022-12-03T09:45:31.482Z,19.95
2022-12-03T09:46:31.465Z,19.93
2022-12-03T09:47:31.369Z,19.95
2022-12-03T09:48:31.379Z,19.90
2022-12-03T09:49:31.400Z,19.93
2022-12-03T09:50:31.430Z,19.96
2022-12-03T09:51:31.469Z,19.97
2022-12-03T09:52:31.466Z,19.97
2022-12-03T09:53:31.481Z,19.97
2022-12-03T09:54:31.514Z,20.00
2022-12-03T09:55:31.541Z,19.99
2022-12-03T09:56:31.599Z,19.99
2022-12-03T09:57:31.615Z,20.00
2022-12-03T09:58:34.748Z,19.93
2022-12-03T09:59:31.655Z,19.96
2022-12-03T10:00:31.674Z,19.96
2022-12-03T10:01:31.730Z,20.00
2022-12-03T10:02:31.680Z,19.96
2022-12-03T10:03:31.721Z,19.97
2022-12-03T10:04:31.772Z,19.96
2022-12-03T10:05:31.767Z,20.00
2022-12-03T10:06:31.827Z,20.03
2022-12-03T10:07:31.802Z,20.03
2022-12-03T10:08:32.463Z,20.04
2022-12-03T10:09:31.832Z,20.03
2022-12-03T10:10:31.846Z,20.00
2022-12-03T10:11:31.902Z,20.00
2022-12-03T10:12:31.848Z,20.00
2022-12-03T10:13:31.928Z,19.96
2022-12-03T10:14:31.938Z,19.99
2022-12-03T10:15:31.975Z,19.97
2022-12-03T10:16:32.091Z,20.02
2022-12-03T10:17:32.021Z,19.97
2022-12-03T10:18:34.469Z,19.96
2022-12-03T10:19:32.055Z,20.02
2022-12-03T10:20:32.078Z,19.99
2022-12-03T10:21:32.122Z,20.02
2022-12-03T10:22:32.109Z,20.02
2022-12-03T10:23:32.147Z,19.99
2022-12-03T10:24:32.180Z,19.96
2022-12-03T10:25:32.245Z,20.02
2022-12-03T10:26:32.345Z,20.03
2022-12-03T10:27:32.355Z,20.03
2022-12-03T10:28:32.293Z,20.02
2022-12-03T10:29:34.239Z,20.00
2022-12-03T10:30:32.377Z,19.97
2022-12-03T10:31:32.423Z,19.97
2022-12-03T10:32:32.367Z,19.97
2022-12-03T10:33:32.375Z,19.95
2022-12-03T10:34:32.398Z,19.93
2022-12-03T10:35:32.435Z,19.95
2022-12-03T10:36:32.495Z,19.97
2022-12-03T10:37:32.493Z,19.96
2022-12-03T10:38:32.519Z,19.96
2022-12-03T10:39:32.541Z,19.96
2022-12-03T10:40:32.556Z,19.95
2022-12-03T10:41:32.620Z,19.92
2022-12-03T10:42:32.629Z,19.88
2022-12-03T10:43:32.670Z,19.89
2022-12-03T10:44:32.684Z,19.93
2022-12-03T10:45:32.698Z,19.88
2022-12-03T10:46:32.877Z,19.83
2022-12-03T10:47:32.879Z,19.80
2022-12-03T10:48:32.911Z,19.73
2022-12-03T10:49:32.852Z,19.72
2022-12-03T10:50:32.886Z,19.73
2022-12-03T10:51:32.930Z,19.76
2022-12-03T10:52:32.924Z,19.79
2022-12-03T10:53:32.950Z,19.76
2022-12-03T10:54:32.973Z,19.76
2022-12-03T10:55:32.999Z,19.79
2022-12-03T10:56:33.032Z,19.83
2022-12-03T10:57:33.018Z,19.82
2022-12-03T10:58:33.048Z,19.82
2022-12-03T10:59:33.078Z,19.83
2022-12-03T11:00:33.107Z,19.79
2022-12-03T11:01:33.245Z,19.82
2022-12-03T11:02:33.142Z,19.85
2022-12-03T11:03:33.218Z,19.82
2022-12-03T11:04:33.197Z,19.80
2022-12-03T11:05:33.208Z,19.85
2022-12-03T11:06:33.271Z,19.86
2022-12-03T11:07:33.314Z,19.86
2022-12-03T11:08:33.285Z,19.88
2022-12-03T11:09:33.319Z,19.85
2022-12-03T11:10:33.333Z,19.82
2022-12-03T11:11:33.372Z,19.83
2022-12-03T11:12:33.379Z,19.80
2022-12-03T11:13:33.417Z,19.82
2022-12-03T11:14:33.419Z,19.83
2022-12-03T11:15:33.484Z,19.85
2022-12-03T11:16:33.673Z,19.88
2022-12-03T11:17:33.504Z,19.86
2022-12-03T11:18:33.538Z,19.89
2022-12-03T11:19:33.569Z,19.83
2022-12-03T11:20:33.577Z,19.79
2022-12-03T11:21:33.893Z,19.82
2022-12-03T11:22:33.616Z,19.82
2022-12-03T11:23:33.641Z,19.83
2022-12-03T11:24:33.659Z,19.83
2022-12-03T11:25:33.690Z,19.79
2022-12-03T11:26:33.722Z,19.86
2022-12-03T11:27:33.716Z,19.83
2022-12-03T11:28:33.735Z,19.80
2022-12-03T11:29:33.746Z,19.79
2022-12-03T11:30:33.763Z,19.79
2022-12-03T11:31:33.953Z,19.75
2022-12-03T11:32:33.824Z,19.62
2022-12-03T11:33:33.851Z,19.58
2022-12-03T11:34:33.883Z,19.52
2022-12-03T11:35:33.882Z,19.58
2022-12-03T11:37:00.469Z,19.63
2022-12-03T11:37:33.924Z,19.69
2022-12-03T11:38:33.921Z,19.72
2022-12-03T11:39:33.958Z,19.69
2022-12-03T11:40:39.430Z,19.75
2022-12-03T11:41:34.169Z,19.72
2022-12-03T11:42:34.109Z,19.75
2022-12-03T11:43:34.104Z,19.75
2022-12-03T11:44:34.177Z,19.78
2022-12-03T11:45:34.155Z,19.73
2022-12-03T11:46:34.235Z,19.72
2022-12-03T11:47:34.228Z,19.75
2022-12-03T11:48:34.228Z,19.70
2022-12-03T11:49:34.264Z,19.62
2022-12-03T11:50:39.687Z,19.68
2022-12-03T11:51:34.334Z,19.66
2022-12-03T11:52:34.378Z,19.66
2022-12-03T11:53:34.404Z,19.66
2022-12-03T11:54:34.434Z,19.62
2022-12-03T11:55:34.468Z,19.61
2022-12-03T11:56:34.498Z,19.58
2022-12-03T11:57:34.528Z,19.45
2022-12-03T11:58:34.549Z,19.44
2022-12-03T11:59:34.584Z,19.37
2022-12-03T12:00:34.624Z,19.37
2022-12-03T12:01:38.565Z,19.41
2022-12-03T12:02:34.797Z,19.45
2022-12-03T12:03:34.811Z,19.45
2022-12-03T12:04:34.782Z,19.45
2022-12-03T12:05:34.753Z,19.47
2022-12-03T12:06:34.754Z,19.47
2022-12-03T12:07:34.830Z,19.44
2022-12-03T12:08:34.769Z,19.44
2022-12-03T12:09:34.798Z,19.47
2022-12-03T12:10:34.836Z,19.48
2022-12-03T12:11:34.846Z,19.47
2022-12-03T12:12:34.878Z,19.47
2022-12-03T12:13:34.913Z,19.45
2022-12-03T12:14:34.936Z,19.44
2022-12-03T12:15:34.930Z,19.50
2022-12-03T12:16:34.998Z,19.52
2022-12-03T12:17:34.995Z,19.50
2022-12-03T12:18:35.005Z,19.45
2022-12-03T12:19:35.040Z,19.41
2022-12-03T12:20:35.076Z,19.42
2022-12-03T12:21:35.108Z,19.45
2022-12-03T12:22:35.134Z,19.44
2022-12-03T12:23:35.129Z,19.44
2022-12-03T12:24:35.179Z,19.48
2022-12-03T12:25:35.209Z,19.51
2022-12-03T12:26:35.236Z,19.55
2022-12-03T12:27:35.277Z,19.55
2022-12-03T12:28:35.299Z,19.55
2022-12-03T12:29:35.343Z,19.58
2022-12-03T12:30:35.376Z,19.61
2022-12-03T12:31:35.449Z,19.62
2022-12-03T12:32:35.465Z,19.55
2022-12-03T12:33:35.452Z,19.61
2022-12-03T12:34:35.462Z,19.66
2022-12-03T12:35:35.474Z,19.70
2022-12-03T12:36:35.501Z,19.66
2022-12-03T12:37:35.544Z,19.73
2022-12-03T12:38:35.576Z,19.72
2022-12-03T12:39:35.615Z,19.73
2022-12-03T12:40:35.645Z,19.73
2022-12-03T12:41:35.693Z,19.78
2022-12-03T12:42:35.708Z,19.79
2022-12-03T12:43:35.735Z,19.79
2022-12-03T12:44:35.757Z,19.79
2022-12-03T12:45:35.767Z,19.76
2022-12-03T12:46:51.201Z,19.75
2022-12-03T12:47:35.862Z,19.75
2022-12-03T12:48:35.852Z,19.75
2022-12-03T12:49:35.851Z,19.73
2022-12-03T12:50:35.892Z,19.75
2022-12-03T12:51:35.928Z,19.75
2022-12-03T12:52:35.963Z,19.79